Time;durP1;ratioP1;P1;durP2;ratioP2;P2;SDS_P1;SDS_P2;PMS_P1;PMS_P2;Temp;Humidity;BMP_temperature;BMP_pressure;BME280_temperature;BME280_humidity;BME280_pressure;Samples;Min_cycle;Max_cycle;Signal;HPM_P1;HPM_P2
2021/03/22 00:00:00;;;;;;;;;;;;;;;-144.01;100.00;62166.59;5079609;28;20324;-66
2021/03/22 00:02:27;;;;;;;;;;;;;;;-144.01;100.00;62166.59;5079263;28;19919;-65
2021/03/22 00:04:53;;;;;;;;;;;;;;;-144.01;100.00;62166.59;5078790;28;20298;-66
2021/03/22 00:07:20;;;;;;;;;;;;;;;-144.01;100.00;62166.59;5076031;28;19912;-63
2021/03/22 00:09:47;;;;;;;;;;;;;;;-144.01;100.00;62166.59;5079336;28;20250;-64
2021/03/22 00:12:14;;;;;;;;;;;;;;;-144.01;100.00;62166.59;5078078;28;19913;-66
2021/03/22 00:14:41;;;;;;;;;;;;;;;-144.01;100.00;62166.59;5076082;28;19916;-60
2021/03/22 00:17:08;;;;;;;;;;;;;;;-144.01;100.00;62166.59;5058532;28;19931;-57
2021/03/22 00:19:35;;;;;;;;;;;;;;;-144.01;100.00;62166.59;5067131;28;19919;-64
2021/03/22 00:22:02;;;;;;;;;;;;;;;-144.01;100.00;62166.59;5059017;28;19924;-64
2021/03/22 00:24:29;;;;;;;;;;;;;;;-144.01;100.00;62166.59;5058792;28;20315;-63
2021/03/22 00:26:56;;;;;;;;;;;;;;;-144.01;100.00;62166.59;5058878;28;19912;-60
2021/03/22 00:29:23;;;;;;;;;;;;;;;-144.01;100.00;62166.59;5094991;28;20250;-62
2021/03/22 00:31:50;;;;;;;;;;;;;;;-144.01;100.00;62166.59;5081195;28;19919;-64
2021/03/22 00:34:16;;;;;;;;;;;;;;;-144.01;100.00;62166.59;5073020;28;19916;-65
2021/03/22 00:36:43;;;;;;;;;;;;;;;-144.01;100.00;62166.59;5057175;28;19919;-67
2021/03/22 00:39:10;;;;;;;;;;;;;;;-144.01;100.00;62166.59;5072317;28;19912;-63
2021/03/22 00:41:37;;;;;;;;;;;;;;;-144.01;100.00;62166.59;5057593;28;19920;-55
2021/03/22 00:44:05;;;;;;;;;;;;;;;-144.01;100.00;62166.59;5070946;28;20266;-66
2021/03/22 00:46:32;;;;;;;;;;;;;;;-144.01;100.00;62166.59;5096461;28;19912;-53
2021/03/22 00:48:59;;;;;;;;;;;;;;;-144.01;100.00;62166.59;5075327;28;19917;-59
2021/03/22 00:51:25;;;;;;;;;;;;;;;-144.01;100.00;62166.59;5072959;28;19912;-53
2021/03/22 00:53:52;;;;;;;;;;;;;;;-144.01;100.00;62166.59;5080877;28;20231;-60
2021/03/22 00:56:19;;;;;;;;;;;;;;;-144.01;100.00;62166.59;5098358;28;19912;-65
2021/03/22 00:58:46;;;;;;;;;;;;;;;-144.01;100.00;62166.59;5098565;28;20238;-63
2021/03/22 01:01:13;;;;;;;;;;;;;;;-144.01;100.00;62166.59;5080429;28;19916;-59
2021/03/22 01:03:40;;;;;;;;;;;;;;;-144.01;100.00;62166.59;5098084;28;19920;-62
2021/03/22 01:06:08;;;;;;;;;;;;;;;-144.01;100.00;62166.59;5096290;28;19916;-62
2021/03/22 01:08:36;;;;;;;;;;;;;;;-144.01;100.00;62166.59;5039192;28;19913;-56
2021/03/22 01:11:06;;;;;;;;;;;;;;;-144.01;100.00;62166.59;5057698;28;19925;-61
2021/03/22 01:13:34;;;;;;;;;;;;;;;-144.01;100.00;62166.59;5067265;28;19913;-62
2021/03/22 01:16:02;;;;;;;;;;;;;;;-144.01;100.00;62166.59;5077208;28;19916;-54
2021/03/22 01:18:30;;;;;;;;;;;;;;;-144.01;100.00;62166.59;5056056;28;19927;-57
2021/03/22 01:20:59;;;;;;;;;;;;;;;-144.01;100.00;62166.59;5058852;28;20335;-59
2021/03/22 01:23:26;;;;;;;;;;;;;;;-144.01;100.00;62166.59;5095212;28;20234;-56
2021/03/22 01:25:53;;;;;;;;;;;;;;;-144.01;100.00;62166.59;5097827;28;19919;-61
2021/03/22 01:28:20;;;;;;;;;;;;;;;-144.01;100.00;62166.59;5085344;28;19924;-60
2021/03/22 01:30:50;;;;;;;;;;;;;;;-144.01;100.00;62166.59;5056603;28;19920;-58
2021/03/22 01:33:19;;;;;;;;;;;;;;;-144.01;100.00;62166.59;5073229;28;19920;-65
2021/03/22 01:35:46;;;;;;;;;;;;;;;-144.01;100.00;62166.59;5077026;28;19919;-59
2021/03/22 01:38:26;;;;;;;;;;;;;;;-144.01;100.00;62166.59;5076977;28;19919;-63
2021/03/22 01:41:02;;;;;;;;;;;;;;;-144.01;100.00;62166.59;5076827;28;19912;-58
2021/03/22 01:43:45;;;;;;;;;;;;;;;-144.01;100.00;62166.59;5074260;28;20345;-60
2021/03/22 01:46:11;;;;;;;;;;;;;;;-144.01;100.00;62166.59;5070800;28;20242;-63
2021/03/22 01:48:38;;;;;;;;;;;;;;;-144.01;100.00;62166.59;5076401;28;19924;-64
2021/03/22 01:51:05;;;;;;;;;;;;;;;-144.01;100.00;62166.59;5058923;28;19916;-62
2021/03/22 01:53:33;;;;;;;;;;;;;;;-144.01;100.00;62166.59;5076872;28;19913;-63
2021/03/22 01:56:13;;;;;;;;;;;;;;;-144.01;100.00;62166.59;5042295;28;19913;-64
2021/03/22 01:58:52;;;;;;;;;;;;;;;-144.01;100.00;62166.59;5076755;28;19917;-56
2021/03/22 02:01:21;;;;;;;;;;;;;;;-144.01;100.00;62166.59;5076663;28;19923;-58
2021/03/22 02:03:48;;;;;;;;;;;;;;;-144.01;100.00;62166.59;5059464;28;19920;-55
2021/03/22 02:06:15;;;;;;;;;;;;;;;-144.01;100.00;62166.59;5076189;28;19920;-49
2021/03/22 02:08:42;;;;;;;;;;;;;;;-144.01;100.00;62166.59;5059075;28;19913;-64
2021/03/22 02:11:17;;;;;;;;;;;;;;;-144.01;100.00;62166.59;5059037;28;20246;-59
2021/03/22 02:13:45;;;;;;;;;;;;;;;-144.01;100.00;62166.59;5076103;28;19912;-58
2021/03/22 02:16:14;;;;;;;;;;;;;;;-144.01;100.00;62166.59;5075331;28;19913;-64
2021/03/22 02:18:59;;;;;;;;;;;;;;;-144.01;100.00;62166.59;5076517;28;19922;-58
2021/03/22 02:21:45;;;;;;;;;;;;;;;-144.01;100.00;62166.59;5076450;28;19919;-66
2021/03/22 02:24:24;;;;;;;;;;;;;;;-144.01;100.00;62166.59;5058746;28;20246;-64
2021/03/22 02:27:00;;;;;;;;;;;;;;;-144.01;100.00;62166.59;5076104;28;19912;-65
2021/03/22 02:29:33;;;;;;;;;;;;;;;-144.01;100.00;62166.59;5076378;28;19923;-61
2021/03/22 02:32:11;;;;;;;;;;;;;;;-144.01;100.00;62166.59;5058879;28;20250;-58
2021/03/22 02:34:39;;;;;;;;;;;;;;;-144.01;100.00;62166.59;5058823;28;19916;-65
2021/03/22 02:37:07;;;;;;;;;;;;;;;-144.01;100.00;62166.59;5058578;28;19919;-65
2021/03/22 02:39:37;;;;;;;;;;;;;;;-144.01;100.00;62166.59;5058857;28;19912;-65
2021/03/22 02:42:04;;;;;;;;;;;;;;;-144.01;100.00;62166.59;5076413;28;19978;-65
2021/03/22 02:44:32;;;;;;;;;;;;;;;-144.01;100.00;62166.59;5075742;28;19928;-64
2021/03/22 02:47:02;;;;;;;;;;;;;;;-144.01;100.00;62166.59;5075746;28;19920;-65
2021/03/22 02:49:30;;;;;;;;;;;;;;;-144.01;100.00;62166.59;5076386;28;20234;-56
2021/03/22 02:52:06;;;;;;;;;;;;;;;-144.01;100.00;62166.59;5058599;28;19912;-57
2021/03/22 02:54:52;;;;;;;;;;;;;;;-144.01;100.00;62166.59;5076007;28;19921;-57
2021/03/22 02:57:23;;;;;;;;;;;;;;;-144.01;100.00;62166.59;5075958;28;19923;-60
2021/03/22 02:59:52;;;;;;;;;;;;;;;-144.01;100.00;62166.59;5058436;28;20234;-58
2021/03/22 03:02:19;;;;;;;;;;;;;;;-144.01;100.00;62166.59;5076054;28;19924;-53
2021/03/22 03:04:46;;;;;;;;;;;;;;;-144.01;100.00;62166.59;5025167;28;19935;-65
2021/03/22 03:07:23;;;;;;;;;;;;;;;-144.01;100.00;62166.59;5058302;28;20302;-66
2021/03/22 03:09:50;;;;;;;;;;;;;;;-144.01;100.00;62166.59;5058289;28;19919;-65
2021/03/22 03:12:17;;;;;;;;;;;;;;;-144.01;100.00;62166.59;5075947;28;20373;-59
2021/03/22 03:14:45;;;;;;;;;;;;;;;-144.01;100.00;62166.59;5075198;28;19920;-56
2021/03/22 03:17:12;;;;;;;;;;;;;;;-144.01;100.00;62166.59;5092426;28;19930;-54
2021/03/22 03:19:39;;;;;;;;;;;;;;;-144.01;100.00;62166.59;5077666;28;19923;-56
2021/03/22 03:22:06;;;;;;;;;;;;;;;-144.01;100.00;62166.59;5075907;28;19920;-56
2021/03/22 03:24:33;;;;;;;;;;;;;;;-144.01;100.00;62166.59;5055600;28;19975;-62
2021/03/22 03:27:00;;;;;;;;;;;;;;;-144.01;100.00;62166.59;5064205;28;19912;-64
2021/03/22 03:29:27;;;;;;;;;;;;;;;-144.01;100.00;62166.59;5079595;28;20239;-60
2021/03/22 03:31:54;;;;;;;;;;;;;;;-144.01;100.00;62166.59;5079648;28;19912;-66
2021/03/22 03:34:21;;;;;;;;;;;;;;;-144.01;100.00;62166.59;5079311;28;20255;-57
2021/03/22 03:36:48;;;;;;;;;;;;;;;-144.01;100.00;62166.59;5090295;28;19919;-58
2021/03/22 03:39:15;;;;;;;;;;;;;;;-144.01;100.00;62166.59;5099784;28;19912;-67
2021/03/22 03:41:42;;;;;;;;;;;;;;;-144.01;100.00;62166.59;5082253;28;20238;-66
2021/03/22 03:44:11;;;;;;;;;;;;;;;-144.01;100.00;62166.59;5068765;28;19923;-64
2021/03/22 03:46:38;;;;;;;;;;;;;;;-144.01;100.00;62166.59;5078648;28;19916;-64
2021/03/22 03:49:06;;;;;;;;;;;;;;;-144.01;100.00;62166.59;5079287;28;19912;-66
2021/03/22 03:51:34;;;;;;;;;;;;;;;-144.01;100.00;62166.59;5072846;28;19913;-66
2021/03/22 03:54:01;;;;;;;;;;;;;;;-144.01;100.00;62166.59;5078014;28;20250;-66
2021/03/22 03:56:28;;;;;;;;;;;;;;;-144.01;100.00;62166.59;5061081;28;19916;-65
2021/03/22 03:58:55;;;;;;;;;;;;;;;-144.01;100.00;62166.59;5063241;28;19920;-63
2021/03/22 04:01:23;;;;;;;;;;;;;;;-144.01;100.00;62166.59;5057816;28;19919;-65
2021/03/22 04:03:50;;;;;;;;;;;;;;;-144.01;100.00;62166.59;5059129;28;20245;-60
2021/03/22 04:06:19;;;;;;;;;;;;;;;-144.01;100.00;62166.59;5057530;28;19917;-61
2021/03/22 04:08:50;;;;;;;;;;;;;;;-144.01;100.00;62166.59;5058078;28;19920;-67
2021/03/22 04:11:21;;;;;;;;;;;;;;;-144.01;100.00;62166.59;5059943;28;19912;-61
2021/03/22 04:13:49;;;;;;;;;;;;;;;-144.01;100.00;62166.59;5075617;28;19912;-66
2021/03/22 04:16:16;;;;;;;;;;;;;;;-144.01;100.00;62166.59;5078577;28;19912;-66
2021/03/22 04:18:43;;;;;;;;;;;;;;;-144.01;100.00;62166.59;5062512;28;19916;-66
2021/03/22 04:21:14;;;;;;;;;;;;;;;-144.01;100.00;62166.59;5072635;28;20254;-57
2021/03/22 04:23:43;;;;;;;;;;;;;;;-144.01;100.00;62166.59;5057615;28;19920;-65
2021/03/22 04:26:10;;;;;;;;;;;;;;;-144.01;100.00;62166.59;5058235;28;19916;-60
2021/03/22 04:28:38;;;;;;;;;;;;;;;-144.01;100.00;62166.59;5058594;28;19924;-60
2021/03/22 04:31:05;;;;;;;;;;;;;;;-144.01;100.00;62166.59;5072763;28;19919;-66
2021/03/22 04:33:32;;;;;;;;;;;;;;;-144.01;100.00;62166.59;5078735;28;19917;-64
2021/03/22 04:35:59;;;;;;;;;;;;;;;-144.01;100.00;62166.59;5078640;28;19919;-64
2021/03/22 04:38:26;;;;;;;;;;;;;;;-144.01;100.00;62166.59;5078011;28;19916;-66
2021/03/22 04:40:53;;;;;;;;;;;;;;;-144.01;100.00;62166.59;5078441;28;20311;-61
2021/03/22 04:43:20;;;;;;;;;;;;;;;-144.01;100.00;62166.59;5077672;28;19916;-63
2021/03/22 04:45:47;;;;;;;;;;;;;;;-144.01;100.00;62166.59;5078294;28;19920;-67
2021/03/22 04:48:14;;;;;;;;;;;;;;;-144.01;100.00;62166.59;5078467;28;19920;-67
2021/03/22 04:50:42;;;;;;;;;;;;;;;-144.01;100.00;62166.59;5078450;28;19916;-65
2021/03/22 04:53:09;;;;;;;;;;;;;;;-144.01;100.00;62166.59;5078489;28;19927;-67
2021/03/22 04:55:36;;;;;;;;;;;;;;;-144.01;100.00;62166.59;5078361;28;19912;-63
2021/03/22 04:58:03;;;;;;;;;;;;;;;-144.01;100.00;62166.59;5078436;28;19920;-58
2021/03/22 05:00:38;;;;;;;;;;;;;;;-144.01;100.00;62166.59;5077867;28;19920;-62
2021/03/22 05:03:06;;;;;;;;;;;;;;;-144.01;100.00;62166.59;5078364;28;19917;-61
2021/03/22 05:05:34;;;;;;;;;;;;;;;-144.01;100.00;62166.59;5078032;28;19920;-61
2021/03/22 05:08:01;;;;;;;;;;;;;;;-144.01;100.00;62166.59;5078029;28;20317;-62
2021/03/22 05:10:33;;;;;;;;;;;;;;;-144.01;100.00;62166.59;5077711;28;20238;-65
2021/03/22 05:13:01;;;;;;;;;;;;;;;-144.01;100.00;62166.59;5077552;28;19916;-63
2021/03/22 05:15:28;;;;;;;;;;;;;;;-144.01;100.00;62166.59;5051923;28;20247;-52
2021/03/22 05:17:55;;;;;;;;;;;;;;;-144.01;100.00;62166.59;5057630;28;19913;-53
2021/03/22 05:20:27;;;;;;;;;;;;;;;-144.01;100.00;62166.59;5065875;28;19916;-57
2021/03/22 05:22:54;;;;;;;;;;;;;;;-144.01;100.00;62166.59;5077671;28;19912;-53
2021/03/22 05:25:20;;;;;;;;;;;;;;;-144.01;100.00;62166.59;5057322;28;19932;-49
2021/03/22 05:27:47;;;;;;;;;;;;;;;-144.01;100.00;62166.59;5058682;28;19919;-52
2021/03/22 05:30:15;;;;;;;;;;;;;;;-144.01;100.00;62166.59;5065200;28;19912;-53
2021/03/22 05:32:42;;;;;;;;;;;;;;;-144.01;100.00;62166.59;5057048;28;19913;-54
2021/03/22 05:35:10;;;;;;;;;;;;;;;-144.01;100.00;62166.59;5079691;28;19923;-57
2021/03/22 05:37:37;;;;;;;;;;;;;;;-144.01;100.00;62166.59;5070954;28;19920;-70
2021/03/22 05:40:06;;;;;;;;;;;;;;;-144.01;100.00;62166.59;5053258;28;19913;-71
2021/03/22 05:42:35;;;;;;;;;;;;;;;-144.01;100.00;62166.59;5054890;28;19917;-70
2021/03/22 05:45:08;;;;;;;;;;;;;;;-144.01;100.00;62166.59;5073522;28;19917;-71
2021/03/22 05:47:46;;;;;;;;;;;;;;;-144.01;100.00;62166.59;5067462;28;19923;-69
2021/03/22 05:50:14;;;;;;;;;;;;;;;-144.01;100.00;62166.59;5062216;28;20041;-69
2021/03/22 05:52:57;;;;;;;;;;;;;;;-144.01;100.00;62166.59;5055656;28;20011;-67
2021/03/22 05:55:43;;;;;;;;;;;;;;;-144.01;100.00;62166.59;5055983;28;19943;-68
2021/03/22 05:58:23;;;;;;;;;;;;;;;-144.01;100.00;62166.59;5056958;28;19924;-68
2021/03/22 06:00:52;;;;;;;;;;;;;;;-144.01;100.00;62166.59;5060623;28;19916;-63
2021/03/22 06:03:34;;;;;;;;;;;;;;;-144.01;100.00;62166.59;5059473;28;19924;-69
2021/03/22 06:06:12;;;;;;;;;;;;;;;-144.01;100.00;62166.59;5076594;28;19916;-64
2021/03/22 06:08:42;;;;;;;;;;;;;;;-144.01;100.00;62166.59;5059251;28;19912;-69
2021/03/22 06:11:18;;;;;;;;;;;;;;;-144.01;100.00;62166.59;5076481;28;19919;-69
2021/03/22 06:13:45;;;;;;;;;;;;;;;-144.01;100.00;62166.59;5076474;28;19912;-69
2021/03/22 06:16:15;;;;;;;;;;;;;;;-144.01;100.00;62166.59;5055016;28;19913;-69
2021/03/22 06:19:08;;;;;;;;;;;;;;;-144.01;100.00;62166.59;5056457;28;19916;-68
2021/03/22 06:21:36;;;;;;;;;;;;;;;-144.01;100.00;62166.59;5062982;28;20235;-68
2021/03/22 06:24:17;;;;;;;;;;;;;;;-144.01;100.00;62166.59;5055278;28;19920;-67
2021/03/22 06:26:45;;;;;;;;;;;;;;;-144.01;100.00;62166.59;5056166;28;19916;-68
2021/03/22 06:29:24;;;;;;;;;;;;;;;-144.01;100.00;62166.59;5056429;28;19923;-69
2021/03/22 06:31:53;;;;;;;;;;;;;;;-144.01;100.00;62166.59;5092190;28;19943;-68
2021/03/22 06:34:21;;;;;;;;;;;;;;;-144.01;100.00;62166.59;5074817;28;19916;-68
2021/03/22 06:36:48;;;;;;;;;;;;;;;-144.01;100.00;62166.59;5076438;28;19912;-68
2021/03/22 06:39:15;;;;;;;;;;;;;;;-144.01;100.00;62166.59;5076476;28;19916;-69
2021/03/22 06:41:53;;;;;;;;;;;;;;;-144.01;100.00;62166.59;5044181;28;19916;-69
2021/03/22 06:44:24;;;;;;;;;;;;;;;-144.01;100.00;62166.59;5073165;28;20600;-63
2021/03/22 06:46:59;;;;;;;;;;;;;;;-144.01;100.00;62166.59;5058800;28;19946;-69
2021/03/22 06:49:31;;;;;;;;;;;;;;;-144.01;100.00;62166.59;5076540;28;19912;-70
2021/03/22 06:52:09;;;;;;;;;;;;;;;-144.01;100.00;62166.59;5064261;28;19919;-68
2021/03/22 06:54:41;;;;;;;;;;;;;;;-144.01;100.00;62166.59;5056114;28;19913;-69
2021/03/22 06:57:09;;;;;;;;;;;;;;;-144.01;100.00;62166.59;5056240;28;19943;-68
2021/03/22 06:59:37;;;;;;;;;;;;;;;-144.01;100.00;62166.59;5039031;28;19913;-68
2021/03/22 07:02:11;;;;;;;;;;;;;;;-144.01;100.00;62166.59;5090365;28;20294;-70
2021/03/22 07:04:38;;;;;;;;;;;;;;;-144.01;100.00;62166.59;5096161;28;19920;-65
2021/03/22 07:07:08;;;;;;;;;;;;;;;-144.01;100.00;62166.59;5087023;28;20300;-57
2021/03/22 07:09:36;;;;;;;;;;;;;;;-144.01;100.00;62166.59;5038609;28;19913;-69
2021/03/22 07:12:04;;;;;;;;;;;;;;;-144.01;100.00;62166.59;5062270;28;19916;-69
2021/03/22 07:14:31;;;;;;;;;;;;;;;-144.01;100.00;62166.59;5076095;28;19923;-71
2021/03/22 07:17:18;;;;;;;;;;;;;;;-144.01;100.00;62166.59;5076296;28;19920;-70
2021/03/22 07:20:04;;;;;;;;;;;;;;;-144.01;100.00;62166.59;5075827;28;20299;-70
2021/03/22 07:22:31;;;;;;;;;;;;;;;-144.01;100.00;62166.59;5092952;28;20310;-70
2021/03/22 07:25:17;;;;;;;;;;;;;;;-144.01;100.00;62166.59;5054863;28;19912;-68
2021/03/22 07:27:52;;;;;;;;;;;;;;;-144.01;100.00;62166.59;5055469;28;19927;-71
2021/03/22 07:30:19;;;;;;;;;;;;;;;-144.01;100.00;62166.59;5055469;28;19923;-70
2021/03/22 07:32:48;;;;;;;;;;;;;;;-144.01;100.00;62166.59;5075971;28;19917;-71
2021/03/22 07:35:15;;;;;;;;;;;;;;;-144.01;100.00;62166.59;5058007;28;19916;-71
2021/03/22 07:37:58;;;;;;;;;;;;;;;-144.01;100.00;62166.59;5076062;28;19921;-70
2021/03/22 07:40:25;;;;;;;;;;;;;;;-144.01;100.00;62166.59;5075531;28;20226;-70
2021/03/22 07:43:00;;;;;;;;;;;;;;;-144.01;100.00;62166.59;5075270;28;20326;-69
2021/03/22 07:45:37;;;;;;;;;;;;;;;-144.01;100.00;62166.59;5037708;28;19924;-70
2021/03/22 07:48:28;;;;;;;;;;;;;;;-144.01;100.00;62166.59;5063966;28;20326;-70
2021/03/22 07:51:13;;;;;;;;;;;;;;;-144.01;100.00;62166.59;5058097;28;19919;-69
2021/03/22 07:53:44;;;;;;;;;;;;;;;-144.01;100.00;62166.59;5075465;28;19913;-70
2021/03/22 07:56:47;;;;;;;;;;;;;;;-144.01;100.00;62166.59;5057937;28;19916;-71
2021/03/22 07:59:17;;;;;;;;;;;;;;;-144.01;100.00;62166.59;5013933;28;19924;-69
2021/03/22 08:01:43;;;;;;;;;;;;;;;-144.01;100.00;62166.59;5063459;28;19916;-70
2021/03/22 08:04:13;;;;;;;;;;;;;;;-144.01;100.00;62166.59;5075582;28;19931;-70
2021/03/22 08:06:48;;;;;;;;;;;;;;;-144.01;100.00;62166.59;5074542;28;19920;-70
2021/03/22 08:09:15;;;;;;;;;;;;;;;-144.01;100.00;62166.59;5058054;28;19912;-71
2021/03/22 08:11:44;;;;;;;;;;;;;;;-144.01;100.00;62166.59;5075390;28;20345;-69
2021/03/22 08:14:11;;;;;;;;;;;;;;;-144.01;100.00;62166.59;5077850;28;19916;-70
2021/03/22 08:16:56;;;;;;;;;;;;;;;-144.01;100.00;62166.59;5079303;28;20230;-69
2021/03/22 08:19:27;;;;;;;;;;;;;;;-144.01;100.00;62166.59;5079295;28;19912;-70
2021/03/22 08:21:59;;;;;;;;;;;;;;;-144.01;100.00;62166.59;5041458;28;19920;-70
2021/03/22 08:24:32;;;;;;;;;;;;;;;-144.01;100.00;62166.59;5057945;28;20258;-70
2021/03/22 08:26:58;;;;;;;;;;;;;;;-144.01;100.00;62166.59;5058173;28;19947;-71
2021/03/22 08:29:30;;;;;;;;;;;;;;;-144.01;100.00;62166.59;5058929;28;19927;-70
2021/03/22 08:32:16;;;;;;;;;;;;;;;-144.01;100.00;62166.59;5074771;28;19912;-72
2021/03/22 08:34:44;;;;;;;;;;;;;;;-144.01;100.00;62166.59;5078719;28;19920;-73
2021/03/22 08:37:13;;;;;;;;;;;;;;;-144.01;100.00;62166.59;5061459;28;19916;-74
2021/03/22 08:40:00;;;;;;;;;;;;;;;-144.01;100.00;62166.59;5061328;28;20295;-71
2021/03/22 08:42:28;;;;;;;;;;;;;;;-144.01;100.00;62166.59;5069771;28;20296;-70
2021/03/22 08:45:00;;;;;;;;;;;;;;;-144.01;100.00;62166.59;5086833;28;20325;-72
2021/03/22 08:47:33;;;;;;;;;;;;;;;-144.01;100.00;62166.59;5098943;28;20234;-71
2021/03/22 08:50:02;;;;;;;;;;;;;;;-144.01;100.00;62166.59;5097398;28;19919;-72
2021/03/22 08:52:30;;;;;;;;;;;;;;;-144.01;100.00;62166.59;5081121;28;19923;-71
2021/03/22 08:55:07;;;;;;;;;;;;;;;-144.01;100.00;62166.59;5080818;28;19911;-72
2021/03/22 08:57:53;;;;;;;;;;;;;;;-144.01;100.00;62166.59;5097696;28;19916;-71
2021/03/22 09:00:40;;;;;;;;;;;;;;;-144.01;100.00;62166.59;5080398;28;19912;-70
2021/03/22 09:03:13;;;;;;;;;;;;;;;-144.01;100.00;62166.59;5073516;28;19917;-70
2021/03/22 09:05:44;;;;;;;;;;;;;;;-144.01;100.00;62166.59;5075882;28;19921;-70
2021/03/22 09:08:21;;;;;;;;;;;;;;;-144.01;100.00;62166.59;5060806;28;20250;-70
2021/03/22 09:10:51;;;;;;;;;;;;;;;-144.01;100.00;62166.59;5060616;28;19919;-70
2021/03/22 09:13:18;;;;;;;;;;;;;;;-144.01;100.00;62166.59;5060381;28;20662;-70
2021/03/22 09:16:09;;;;;;;;;;;;;;;-144.01;100.00;62166.59;5078102;28;19916;-70
2021/03/22 09:18:35;;;;;;;;;;;;;;;-144.01;100.00;62166.59;5049006;28;19912;-71
2021/03/22 09:21:08;;;;;;;;;;;;;;;-144.01;100.00;62166.59;5060402;28;19916;-70
2021/03/22 09:23:35;;;;;;;;;;;;;;;-144.01;100.00;62166.59;5059917;28;19912;-58
2021/03/22 09:26:03;;;;;;;;;;;;;;;-144.01;100.00;62166.59;5077728;28;19916;-71
2021/03/22 09:28:32;;;;;;;;;;;;;;;-144.01;100.00;62166.59;5077690;28;20278;-44
2021/03/22 09:31:03;;;;;;;;;;;;;;;-144.01;100.00;62166.59;5076639;28;19912;-44
2021/03/22 09:33:48;;;;;;;;;;;;;;;-144.01;100.00;62166.59;5077447;28;20299;-44
2021/03/22 09:36:24;;;;;;;;;;;;;;;-144.01;100.00;62166.59;5077540;28;20299;-57
2021/03/22 09:38:51;;;;;;;;;;;;;;;-144.01;100.00;62166.59;5077509;28;19912;-50
2021/03/22 09:41:18;;;;;;;;;;;;;;;-144.01;100.00;62166.59;5059125;28;20299;-56
2021/03/22 09:43:47;;;;;;;;;;;;;;;-144.01;100.00;62166.59;5076459;28;19924;-44
2021/03/22 09:46:16;;;;;;;;;;;;;;;-144.01;100.00;62166.59;5076277;28;19927;-51
2021/03/22 09:48:43;;;;;;;;;;;;;;;-144.01;100.00;62166.59;5079755;28;19919;-56
2021/03/22 09:51:10;;;;;;;;;;;;;;;-144.01;100.00;62166.59;5097681;28;19919;-44
2021/03/22 09:53:39;;;;;;;;;;;;;;;-144.01;100.00;62166.59;5097282;28;19912;-60
2021/03/22 09:56:08;;;;;;;;;;;;;;;-144.01;100.00;62166.59;5090448;28;19917;-49
2021/03/22 09:58:37;;;;;;;;;;;;;;;-144.01;100.00;62166.59;5057250;28;19912;-44
2021/03/22 10:01:05;;;;;;;;;;;;;;;-144.01;100.00;62166.59;5051089;28;19920;-45
2021/03/22 10:03:37;;;;;;;;;;;;;;;-144.01;100.00;62166.59;5055266;28;19924;-70
2021/03/22 10:06:06;;;;;;;;;;;;;;;-144.01;100.00;62166.59;5071158;28;19924;-44
2021/03/22 10:08:37;;;;;;;;;;;;;;;-144.01;100.00;62166.59;5059511;28;19916;-50
2021/03/22 10:11:09;;;;;;;;;;;;;;;-144.01;100.00;62166.59;5059394;28;20295;-70
2021/03/22 10:13:43;;;;;;;;;;;;;;;-144.01;100.00;62166.59;5059291;28;19912;-60
2021/03/22 10:16:12;;;;;;;;;;;;;;;-144.01;100.00;62166.59;5095970;28;19912;-65
2021/03/22 10:18:43;;;;;;;;;;;;;;;-144.01;100.00;62166.59;5084827;28;19912;-52
2021/03/22 10:21:14;;;;;;;;;;;;;;;-144.01;100.00;62166.59;5076830;28;19913;-44
2021/03/22 10:23:51;;;;;;;;;;;;;;;-144.01;100.00;62166.59;5074510;28;19912;-45
2021/03/22 10:26:21;;;;;;;;;;;;;;;-144.01;100.00;62166.59;5039066;28;20300;-43
2021/03/22 10:28:48;;;;;;;;;;;;;;;-144.01;100.00;62166.59;5038980;28;19920;-45
2021/03/22 10:31:22;;;;;;;;;;;;;;;-144.01;100.00;62166.59;5064289;28;19923;-44
2021/03/22 10:33:56;;;;;;;;;;;;;;;-144.01;100.00;62166.59;5076167;28;19920;-48
2021/03/22 10:36:25;;;;;;;;;;;;;;;-144.01;100.00;62166.59;5058288;28;19919;-44
2021/03/22 10:38:53;;;;;;;;;;;;;;;-144.01;100.00;62166.59;5055579;28;19913;-72
2021/03/22 10:41:32;;;;;;;;;;;;;;;-144.01;100.00;62166.59;5055518;28;20318;-60
2021/03/22 10:44:01;;;;;;;;;;;;;;;-144.01;100.00;62166.59;5063920;28;19912;-55
2021/03/22 10:46:29;;;;;;;;;;;;;;;-144.01;100.00;62166.59;5076227;28;19928;-45
2021/03/22 10:48:58;;;;;;;;;;;;;;;-144.01;100.00;62166.59;5076437;28;20252;-47
2021/03/22 10:51:41;;;;;;;;;;;;;;;-144.01;100.00;62166.59;5076318;28;20329;-44
2021/03/22 10:54:16;;;;;;;;;;;;;;;-144.01;100.00;62166.59;5075882;28;19912;-61
2021/03/22 10:56:53;;;;;;;;;;;;;;;-144.01;100.00;62166.59;5076381;28;19913;-54
2021/03/22 10:59:36;;;;;;;;;;;;;;;-144.01;100.00;62166.59;5076512;28;19927;-72
2021/03/22 11:02:22;;;;;;;;;;;;;;;-144.01;100.00;62166.59;5062589;28;19920;-54
2021/03/22 11:04:49;;;;;;;;;;;;;;;-144.01;100.00;62166.59;5054962;28;19916;-45
2021/03/22 11:07:19;;;;;;;;;;;;;;;-144.01;100.00;62166.59;5056056;28;20231;-69
2021/03/22 11:09:56;;;;;;;;;;;;;;;-144.01;100.00;62166.59;5055034;28;19919;-66
2021/03/22 11:12:23;;;;;;;;;;;;;;;-144.01;100.00;62166.59;5055986;28;20316;-57
2021/03/22 11:15:02;;;;;;;;;;;;;;;-144.01;100.00;62166.59;5069990;28;19919;-45
2021/03/22 11:17:29;;;;;;;;;;;;;;;-144.01;100.00;62166.59;5058391;28;19924;-59
2021/03/22 11:19:56;;;;;;;;;;;;;;;-144.01;100.00;62166.59;5076081;28;19912;-49
2021/03/22 11:22:27;;;;;;;;;;;;;;;-144.01;100.00;62166.59;5075651;28;20229;-67
2021/03/22 11:24:55;;;;;;;;;;;;;;;-144.01;100.00;62166.59;5076035;28;19946;-67
2021/03/22 11:27:23;;;;;;;;;;;;;;;-144.01;100.00;62166.59;5041905;28;19916;-68
2021/03/22 11:29:53;;;;;;;;;;;;;;;-144.01;100.00;62166.59;5075893;28;19916;-67
2021/03/22 11:32:20;;;;;;;;;;;;;;;-144.01;100.00;62166.59;5075986;28;19919;-68
2021/03/22 11:34:47;;;;;;;;;;;;;;;-144.01;100.00;62166.59;5076083;28;20077;-68
2021/03/22 11:37:20;;;;;;;;;;;;;;;-144.01;100.00;62166.59;5058342;28;19920;-68
2021/03/22 11:40:07;;;;;;;;;;;;;;;-144.01;100.00;62166.59;5074926;28;20250;-67
2021/03/22 11:42:50;;;;;;;;;;;;;;;-144.01;100.00;62166.59;5065142;28;19943;-67
2021/03/22 11:45:27;;;;;;;;;;;;;;;-144.01;100.00;62166.59;5067396;28;19912;-67
2021/03/22 11:47:54;;;;;;;;;;;;;;;-144.01;100.00;62166.59;5080658;28;19920;-68
2021/03/22 11:50:22;;;;;;;;;;;;;;;-144.01;100.00;62166.59;5099818;28;19923;-69
2021/03/22 11:53:07;;;;;;;;;;;;;;;-144.01;100.00;62166.59;5100047;28;19923;-68
2021/03/22 11:55:37;;;;;;;;;;;;;;;-144.01;100.00;62166.59;5099817;28;19919;-69
2021/03/22 11:58:04;;;;;;;;;;;;;;;-144.01;100.00;62166.59;5100070;28;19915;-68
2021/03/22 12:00:32;;;;;;;;;;;;;;;-144.01;100.00;62166.59;5097765;28;20361;-68
2021/03/22 12:03:02;;;;;;;;;;;;;;;-144.01;100.00;62166.59;5067516;28;19916;-67
2021/03/22 12:05:37;;;;;;;;;;;;;;;-144.01;100.00;62166.59;5099626;28;19912;-68
2021/03/22 12:08:22;;;;;;;;;;;;;;;-144.01;100.00;62166.59;5098920;28;20230;-67
2021/03/22 12:10:50;;;;;;;;;;;;;;;-144.01;100.00;62166.59;5099447;28;19912;-68
2021/03/22 12:13:17;;;;;;;;;;;;;;;-144.01;100.00;62166.59;5096993;28;19912;-68
2021/03/22 12:15:44;;;;;;;;;;;;;;;-144.01;100.00;62166.59;5068870;28;20250;-70
2021/03/22 12:18:11;;;;;;;;;;;;;;;-144.01;100.00;62166.59;5059152;28;19912;-68
2021/03/22 12:20:38;;;;;;;;;;;;;;;-144.01;100.00;62166.59;5074255;28;19912;-67
2021/03/22 12:23:05;;;;;;;;;;;;;;;-144.01;100.00;62166.59;5078489;28;20449;-67
2021/03/22 12:25:32;;;;;;;;;;;;;;;-144.01;100.00;62166.59;5079084;28;19912;-69
2021/03/22 12:27:59;;;;;;;;;;;;;;;-144.01;100.00;62166.59;5078811;28;19916;-67
2021/03/22 12:30:27;;;;;;;;;;;;;;;-144.01;100.00;62166.59;5078574;28;19912;-70
2021/03/22 12:32:54;;;;;;;;;;;;;;;-144.01;100.00;62166.59;5078861;28;19916;-68
2021/03/22 12:35:26;;;;;;;;;;;;;;;-144.01;100.00;62166.59;5078814;28;19912;-68